Disclaimer

Please do not use the information listed here in-flight or in-navigation, as they are not provided to us by the airports but are provided by volunteers, so they might be outdated.

Search


Regions


Airport information page

Radio informations:
TARAPOTO TWR - 118.4 MHz
TARAPOTO RDO - 126.9 MHz
TARAPOTO APP/TWR - 118.4 MHz

Airport informations:
Latitude: 06° 30' 31.47" S
Longitude: 076° 22' 23.69" W
Elevation: 869 feet - 265 meters
Operating hours: Remarks
Operating agency: Military-civil joint use airport
Timezone: UTC-5
Fuel: Jet A1, without icing nhibitor.

100/130 MIL Spec, low lead, aviation gasoline (BLUE)

Runway information:
17/35 - 8530 x 148 feet< - >2600 x 45 meters

Recent METARs:
SPST 190200Z 00000KT 9999 SCT020 27/22 Q1010 RMK BIRD HAZARD RWY 17/35 PP000
SPST 190200Z 00000KT 9999 SCT020 27/22 Q1010 RMK BIRD HAZARD RWY 17/35 PP000
SPST 190200Z 00000KT 9999 SCT020 27/22 Q1010 RMK BIRD HAZARD RWY 17/35 PP000

Airport on the map: